createdAt,value
2019-03-28T00:00:35.037Z,25.45
2019-03-28T00:02:38.573Z,24.27
2019-03-28T00:04:42.375Z,24.25
2019-03-28T00:06:46.223Z,25.35
2019-03-28T00:08:49.760Z,25.40
2019-03-28T00:10:53.548Z,29.70
2019-03-28T00:12:57.157Z,27.67
2019-03-28T00:15:00.826Z,30.30
2019-03-28T00:17:04.429Z,27.48
2019-03-28T00:19:07.975Z,28.83
2019-03-28T00:21:11.940Z,27.20
2019-03-28T00:23:19.633Z,24.65
2019-03-28T00:25:25.456Z,26.87
2019-03-28T00:27:29.022Z,27.13
2019-03-28T00:29:32.595Z,26.40
2019-03-28T00:31:36.073Z,26.68
2019-03-28T00:33:39.606Z,25.32
2019-03-28T00:35:43.265Z,26.27
2019-03-28T00:37:46.727Z,25.80
2019-03-28T00:39:50.262Z,27.80
2019-03-28T00:41:53.796Z,25.92
2019-03-28T00:43:58.145Z,25.77
2019-03-28T00:46:01.971Z,26.68
2019-03-28T00:48:05.743Z,30.10
2019-03-28T00:50:09.900Z,28.55
2019-03-28T00:52:13.512Z,28.38
2019-03-28T00:54:16.980Z,25.32
2019-03-28T00:56:20.516Z,25.57
2019-03-28T00:58:23.975Z,26.05
2019-03-28T01:00:27.897Z,24.30
2019-03-28T01:02:31.461Z,24.20
2019-03-28T01:04:34.924Z,25.43
2019-03-28T01:06:38.488Z,22.13
2019-03-28T01:08:41.956Z,23.40
2019-03-28T01:10:45.420Z,25.17
2019-03-28T01:12:48.879Z,27.00
2019-03-28T01:14:52.340Z,25.12
2019-03-28T01:16:56.014Z,25.62
2019-03-28T01:18:59.692Z,25.35
2019-03-28T01:21:03.568Z,25.35
2019-03-28T01:23:07.100Z,25.97
2019-03-28T01:25:11.631Z,26.85
2019-03-28T01:27:15.090Z,26.60
2019-03-28T01:29:18.957Z,25.30
2019-03-28T01:31:22.484Z,27.98
2019-03-28T01:33:26.044Z,29.27
2019-03-28T01:35:29.850Z,29.80
2019-03-28T01:37:33.384Z,33.20
2019-03-28T01:39:37.244Z,33.42
2019-03-28T01:41:41.148Z,28.05
2019-03-28T01:43:45.070Z,26.95
2019-03-28T01:45:48.616Z,27.20
2019-03-28T01:47:52.128Z,26.20
2019-03-28T01:49:55.594Z,26.75
2019-03-28T01:51:59.238Z,26.52
2019-03-28T01:54:03.353Z,27.50
2019-03-28T01:56:06.941Z,27.10
2019-03-28T01:58:10.476Z,28.17
2019-03-28T02:00:14.282Z,29.40
2019-03-28T02:02:17.744Z,28.38
2019-03-28T02:04:21.546Z,29.32
2019-03-28T02:06:25.007Z,29.07
2019-03-28T02:08:28.513Z,28.90
2019-03-28T02:10:32.053Z,27.70
2019-03-28T02:12:35.587Z,27.20
2019-03-28T02:14:39.230Z,29.77
2019-03-28T02:16:42.860Z,29.48
2019-03-28T02:18:46.320Z,29.00
2019-03-28T02:20:50.051Z,29.23
2019-03-28T02:22:54.440Z,28.35
2019-03-28T02:24:57.932Z,29.82
2019-03-28T02:27:01.401Z,33.45
2019-03-28T02:29:05.003Z,29.95
2019-03-28T02:31:08.464Z,29.45
2019-03-28T02:33:12.071Z,28.12
2019-03-28T02:35:15.581Z,30.32
2019-03-28T02:37:19.296Z,26.95
2019-03-28T02:39:22.814Z,28.90
2019-03-28T02:41:26.640Z,28.52
2019-03-28T02:43:30.588Z,29.60
2019-03-28T02:45:34.114Z,29.50
2019-03-28T02:47:37.938Z,32.48
2019-03-28T02:49:41.417Z,30.48
2019-03-28T02:51:45.044Z,31.45
2019-03-28T02:53:48.506Z,32.15
2019-03-28T02:55:51.974Z,29.42
2019-03-28T02:57:55.710Z,32.63
2019-03-28T02:59:59.356Z,30.75
2019-03-28T03:02:03.211Z,31.62
2019-03-28T03:04:06.812Z,33.35
2019-03-28T03:06:10.596Z,33.63
2019-03-28T03:08:14.057Z,32.63
2019-03-28T03:10:17.662Z,33.30
2019-03-28T03:12:21.372Z,34.70
2019-03-28T03:14:24.960Z,33.20
2019-03-28T03:16:28.492Z,35.98
2019-03-28T03:18:32.016Z,35.05
2019-03-28T03:20:35.481Z,33.50
2019-03-28T03:22:38.948Z,34.00
2019-03-28T03:24:42.501Z,37.38
2019-03-28T03:26:46.225Z,35.60
2019-03-28T03:28:49.689Z,35.73
2019-03-28T03:30:53.411Z,35.15
2019-03-28T03:32:57.040Z,36.03
2019-03-28T03:35:01.983Z,40.17
2019-03-28T03:37:06.103Z,40.43
2019-03-28T03:39:10.105Z,39.90
2019-03-28T03:41:13.755Z,41.92
2019-03-28T03:43:17.613Z,41.08
2019-03-28T03:45:21.193Z,39.20
2019-03-28T03:47:24.793Z,38.63
2019-03-28T03:49:28.262Z,35.55
2019-03-28T03:51:31.909Z,40.55
2019-03-28T03:53:35.377Z,41.75
2019-03-28T03:55:39.197Z,39.83
2019-03-28T03:57:42.729Z,42.30
2019-03-28T03:59:46.196Z,39.42
2019-03-28T04:01:49.958Z,44.27
2019-03-28T04:03:53.748Z,40.83
2019-03-28T04:05:57.297Z,43.33
2019-03-28T04:08:01.005Z,40.25
2019-03-28T04:10:06.077Z,54.40
2019-03-28T04:12:09.809Z,39.42
2019-03-28T04:14:13.324Z,40.65
2019-03-28T04:16:16.863Z,38.17
2019-03-28T04:18:22.196Z,39.58
2019-03-28T04:20:26.319Z,39.15
2019-03-28T04:22:29.932Z,42.25
2019-03-28T04:24:33.782Z,39.38
2019-03-28T04:26:37.331Z,40.78
2019-03-28T04:28:40.865Z,41.15
2019-03-28T04:30:44.329Z,42.62
2019-03-28T04:32:47.889Z,46.40
2019-03-28T04:34:51.460Z,42.03
2019-03-28T04:36:54.957Z,41.33
2019-03-28T04:38:58.469Z,39.98
2019-03-28T04:41:02.008Z,41.08
2019-03-28T04:43:05.644Z,41.40
2019-03-28T04:45:09.833Z,38.60
2019-03-28T04:47:13.448Z,40.55
2019-03-28T04:49:16.989Z,39.20
2019-03-28T04:51:20.532Z,41.35
2019-03-28T04:53:24.181Z,37.45
2019-03-28T04:55:27.736Z,37.78
2019-03-28T04:57:31.599Z,38.92
2019-03-28T04:59:35.056Z,41.10
2019-03-28T05:01:39.408Z,40.95
2019-03-28T05:03:42.971Z,46.40
2019-03-28T05:05:46.508Z,47.15
2019-03-28T05:07:50.305Z,42.50
2019-03-28T05:09:53.984Z,44.08
2019-03-28T05:11:57.449Z,37.63
2019-03-28T05:14:00.909Z,39.73
2019-03-28T05:16:04.540Z,38.28
2019-03-28T05:18:08.317Z,39.42
2019-03-28T05:20:13.441Z,39.10
2019-03-28T05:22:17.444Z,43.10
2019-03-28T05:24:20.897Z,39.48
2019-03-28T05:26:24.465Z,38.95
2019-03-28T05:28:28.071Z,38.25
2019-03-28T05:30:31.540Z,42.17
2019-03-28T05:32:35.341Z,40.10
2019-03-28T05:34:38.806Z,37.90
2019-03-28T05:36:42.260Z,38.48
2019-03-28T05:38:45.720Z,42.25
2019-03-28T05:40:49.501Z,42.33
2019-03-28T05:42:53.185Z,41.63
2019-03-28T05:44:56.720Z,41.08
2019-03-28T05:47:00.496Z,43.75
2019-03-28T05:49:04.352Z,56.37
2019-03-28T05:51:08.628Z,42.48
2019-03-28T05:53:12.088Z,46.37
2019-03-28T05:55:15.632Z,47.85
2019-03-28T05:57:19.361Z,55.83
2019-03-28T05:59:23.731Z,47.88
2019-03-28T06:01:27.268Z,45.60
2019-03-28T06:03:30.914Z,44.48
2019-03-28T06:05:34.376Z,46.92
2019-03-28T06:07:37.913Z,47.08
2019-03-28T06:09:41.740Z,48.65
2019-03-28T06:11:45.271Z,47.45
2019-03-28T06:13:49.037Z,45.85
2019-03-28T06:15:52.837Z,50.25
2019-03-28T06:17:56.459Z,42.05
2019-03-28T06:19:59.928Z,42.00
2019-03-28T06:22:04.245Z,55.12
2019-03-28T06:24:07.783Z,55.33
2019-03-28T06:26:11.253Z,48.40
2019-03-28T06:28:15.145Z,46.05
2019-03-28T06:30:18.742Z,43.33
2019-03-28T06:32:24.148Z,41.65
2019-03-28T06:34:27.607Z,40.83
2019-03-28T06:36:31.068Z,40.33
2019-03-28T06:38:34.531Z,41.50
2019-03-28T06:40:38.084Z,37.53
2019-03-28T06:42:41.880Z,39.95
2019-03-28T06:44:45.348Z,39.95
2019-03-28T06:46:48.882Z,40.40
2019-03-28T06:48:52.665Z,40.33
2019-03-28T06:50:56.528Z,39.08
2019-03-28T06:53:00.068Z,38.50
2019-03-28T06:55:04.156Z,37.35
2019-03-28T06:57:08.072Z,40.73
2019-03-28T06:59:11.707Z,37.67
2019-03-28T07:01:15.239Z,36.98
2019-03-28T07:03:19.034Z,35.40
2019-03-28T07:05:22.823Z,35.23
2019-03-28T07:07:26.464Z,33.80
2019-03-28T07:09:30.000Z,35.52
2019-03-28T07:11:33.481Z,32.13
2019-03-28T07:13:36.948Z,33.98
2019-03-28T07:15:41.261Z,31.77
2019-03-28T07:17:44.864Z,39.38
2019-03-28T07:19:48.324Z,36.93
2019-03-28T07:21:52.948Z,35.40
2019-03-28T07:23:56.404Z,31.05
2019-03-28T07:26:00.272Z,32.80
2019-03-28T07:28:06.243Z,35.23
2019-03-28T07:30:12.066Z,30.70
2019-03-28T07:32:15.600Z,30.75
2019-03-28T07:34:19.368Z,36.30
2019-03-28T07:36:23.205Z,28.12
2019-03-28T07:38:26.728Z,29.35
2019-03-28T07:40:33.361Z,27.67
2019-03-28T07:42:35.688Z,41.85
2019-03-28T07:44:39.521Z,29.80
2019-03-28T07:46:42.985Z,43.10
2019-03-28T07:48:46.552Z,28.83
2019-03-28T07:50:50.277Z,34.38
2019-03-28T07:52:53.869Z,47.27
2019-03-28T07:54:57.496Z,51.88
2019-03-28T07:57:01.834Z,50.50
2019-03-28T07:59:05.449Z,83.20
2019-03-28T08:01:09.002Z,85.15
2019-03-28T08:03:12.540Z,51.40
2019-03-28T08:05:16.700Z,56.18
2019-03-28T08:07:20.302Z,48.83
2019-03-28T08:09:36.039Z,41.40
2019-03-28T08:11:29.160Z,44.80
2019-03-28T08:13:33.561Z,34.23
2019-03-28T08:15:37.023Z,37.93
2019-03-28T08:17:40.563Z,27.95
2019-03-28T08:19:44.101Z,27.77
2019-03-28T08:21:47.644Z,25.57
2019-03-28T08:23:51.248Z,22.67
2019-03-28T08:25:54.712Z,23.27
2019-03-28T08:27:59.057Z,23.73
2019-03-28T08:30:02.525Z,24.95
2019-03-28T08:32:08.919Z,24.00
2019-03-28T08:34:13.713Z,24.92
2019-03-28T08:36:17.768Z,24.40
2019-03-28T08:38:22.445Z,26.95
2019-03-28T08:40:35.072Z,25.40
2019-03-28T08:42:38.666Z,26.37
2019-03-28T08:44:42.229Z,28.32
2019-03-28T08:46:46.073Z,26.68
2019-03-28T08:48:49.540Z,24.90
2019-03-28T08:50:53.008Z,26.77
2019-03-28T08:52:56.469Z,55.35
2019-03-28T08:54:59.943Z,148.70
2019-03-28T08:57:03.589Z,100.22
2019-03-28T08:59:07.125Z,29.35
2019-03-28T09:01:10.865Z,49.42
2019-03-28T09:03:14.401Z,33.33
2019-03-28T09:05:18.837Z,25.10
2019-03-28T09:07:22.669Z,19.45
2019-03-28T09:09:26.284Z,18.73
2019-03-28T09:11:29.821Z,16.45
2019-03-28T09:13:33.281Z,16.90
2019-03-28T09:15:43.493Z,27.32
2019-03-28T09:17:42.124Z,156.10
2019-03-28T09:19:45.967Z,21.27
2019-03-28T09:21:49.501Z,27.55
2019-03-28T09:23:52.956Z,41.35
2019-03-28T09:25:57.298Z,23.52
2019-03-28T09:28:00.787Z,20.80
2019-03-28T09:30:07.307Z,18.70
2019-03-28T09:32:10.845Z,23.60
2019-03-28T09:34:15.248Z,29.65
2019-03-28T09:36:18.719Z,48.05
2019-03-28T09:38:22.476Z,44.63
2019-03-28T09:40:26.018Z,52.73
2019-03-28T09:42:30.553Z,54.67
2019-03-28T09:44:34.056Z,62.13
2019-03-28T09:46:37.585Z,55.43
2019-03-28T09:48:41.045Z,20.25
2019-03-28T09:50:44.936Z,27.67
2019-03-28T09:52:48.477Z,35.35
2019-03-28T09:54:52.074Z,30.30
2019-03-28T09:56:55.609Z,27.77
2019-03-28T09:59:00.508Z,13.90
2019-03-28T10:01:04.851Z,17.40
2019-03-28T10:03:08.732Z,19.10
2019-03-28T10:05:12.636Z,19.12
2019-03-28T10:07:16.108Z,14.40
2019-03-28T10:09:19.648Z,16.25
2019-03-28T10:11:23.116Z,14.15
2019-03-28T10:13:26.581Z,12.35
2019-03-28T10:15:30.089Z,17.10
2019-03-28T10:17:33.744Z,16.45
2019-03-28T10:19:37.589Z,18.23
2019-03-28T10:21:41.067Z,19.77
2019-03-28T10:23:44.627Z,16.70
2019-03-28T10:25:48.148Z,21.40
2019-03-28T10:27:51.793Z,17.67
2019-03-28T10:29:55.481Z,15.23
2019-03-28T10:31:59.090Z,16.15
2019-03-28T10:34:02.619Z,18.42
2019-03-28T10:36:06.682Z,17.12
2019-03-28T10:38:10.211Z,20.23
2019-03-28T10:40:14.661Z,37.58
2019-03-28T10:42:18.224Z,30.85
2019-03-28T10:44:21.752Z,27.60
2019-03-28T10:46:26.476Z,29.75
2019-03-28T10:48:29.940Z,37.98
2019-03-28T10:50:40.830Z,34.20
2019-03-28T10:52:39.065Z,41.77
2019-03-28T10:54:43.153Z,27.07
2019-03-28T10:56:52.040Z,30.25
2019-03-28T10:58:52.804Z,31.68
2019-03-28T11:00:56.715Z,27.25
2019-03-28T11:03:00.313Z,34.98
2019-03-28T11:05:04.848Z,23.42
2019-03-28T11:07:08.423Z,24.92
2019-03-28T11:09:12.329Z,24.50
2019-03-28T11:11:15.792Z,21.97
2019-03-28T11:13:20.213Z,20.80
2019-03-28T11:15:24.040Z,23.57
2019-03-28T11:17:27.650Z,34.88
2019-03-28T11:19:31.545Z,20.95
2019-03-28T11:21:35.116Z,27.90
2019-03-28T11:23:38.776Z,18.50
2019-03-28T11:25:42.775Z,20.17
2019-03-28T11:27:46.649Z,18.85
2019-03-28T11:29:50.199Z,17.42
2019-03-28T11:31:54.053Z,17.75
2019-03-28T11:33:57.980Z,16.48
2019-03-28T11:36:01.962Z,15.10
2019-03-28T11:38:09.333Z,15.08
2019-03-28T11:40:12.835Z,13.98
2019-03-28T11:42:16.750Z,13.08
2019-03-28T11:44:20.325Z,13.53
2019-03-28T11:46:24.121Z,14.35
2019-03-28T11:48:27.954Z,13.68
2019-03-28T11:50:31.852Z,15.05
2019-03-28T11:52:35.968Z,16.30
2019-03-28T11:54:39.768Z,13.83
2019-03-28T11:56:43.305Z,13.22
2019-03-28T11:58:47.064Z,11.90
2019-03-28T12:00:51.793Z,12.15
2019-03-28T12:02:55.612Z,14.15
2019-03-28T12:04:59.521Z,41.35
2019-03-28T12:07:03.300Z,54.63
2019-03-28T12:09:07.605Z,17.85
2019-03-28T12:11:11.143Z,19.23
2019-03-28T12:13:14.612Z,14.43
2019-03-28T12:15:19.246Z,21.17
2019-03-28T12:17:22.888Z,17.23
2019-03-28T12:19:26.390Z,16.10
2019-03-28T12:21:29.900Z,19.75
2019-03-28T12:23:33.716Z,18.02
2019-03-28T12:25:37.256Z,15.90
2019-03-28T12:27:40.962Z,13.45
2019-03-28T12:29:44.509Z,14.33
2019-03-28T12:31:47.971Z,16.52
2019-03-28T12:33:51.616Z,16.15
2019-03-28T12:35:55.160Z,11.38
2019-03-28T12:37:58.628Z,14.13
2019-03-28T12:40:02.804Z,7.53
2019-03-28T12:42:06.411Z,8.68
2019-03-28T12:44:10.272Z,7.10
2019-03-28T12:46:14.099Z,7.05
2019-03-28T12:48:17.638Z,9.58
2019-03-28T12:50:21.309Z,10.00
2019-03-28T12:52:25.205Z,22.35
2019-03-28T12:54:29.035Z,9.88
2019-03-28T12:56:32.554Z,45.80
2019-03-28T12:58:36.103Z,13.60
2019-03-28T13:00:39.773Z,16.10
2019-03-28T13:02:43.412Z,8.58
2019-03-28T13:04:47.204Z,12.05
2019-03-28T13:06:51.005Z,31.70
2019-03-28T13:08:54.761Z,10.98
2019-03-28T13:10:58.300Z,7.08
2019-03-28T13:13:02.121Z,10.88
2019-03-28T13:15:07.729Z,25.30
2019-03-28T13:17:11.313Z,26.87
2019-03-28T13:19:14.873Z,11.25
2019-03-28T13:21:18.336Z,9.33
2019-03-28T13:23:21.804Z,15.10
2019-03-28T13:25:26.133Z,13.93
2019-03-28T13:27:29.881Z,11.00
2019-03-28T13:29:33.521Z,10.80
2019-03-28T13:31:37.026Z,8.45
2019-03-28T13:33:40.491Z,10.98
2019-03-28T13:35:44.238Z,9.48
2019-03-28T13:37:48.652Z,19.85
2019-03-28T13:39:53.045Z,25.97
2019-03-28T13:41:57.376Z,19.40
2019-03-28T13:44:01.196Z,11.43
2019-03-28T13:46:04.796Z,19.57
2019-03-28T13:48:08.347Z,14.35
2019-03-28T13:50:12.981Z,16.32
2019-03-28T13:52:16.825Z,11.53
2019-03-28T13:54:23.231Z,15.80
2019-03-28T13:56:26.261Z,18.05
2019-03-28T13:58:30.185Z,13.18
2019-03-28T14:00:34.388Z,11.38
2019-03-28T14:02:37.964Z,15.85
2019-03-28T14:04:42.409Z,12.40
2019-03-28T14:06:46.201Z,17.20
2019-03-28T14:08:50.002Z,10.82
2019-03-28T14:10:53.585Z,54.73
2019-03-28T14:12:57.502Z,30.85
2019-03-28T14:15:01.434Z,27.20
2019-03-28T14:17:05.306Z,24.90
2019-03-28T14:19:09.316Z,16.48
2019-03-28T14:21:12.916Z,22.90
2019-03-28T14:23:17.206Z,25.08
2019-03-28T14:25:23.449Z,23.62
2019-03-28T14:27:27.285Z,16.17
2019-03-28T14:29:31.299Z,21.10
2019-03-28T14:31:35.076Z,19.65
2019-03-28T14:33:38.897Z,20.60
2019-03-28T14:35:42.429Z,15.98
2019-03-28T14:37:46.297Z,69.55
2019-03-28T14:39:50.204Z,14.03
2019-03-28T14:41:53.736Z,13.58
2019-03-28T14:43:57.372Z,21.42
2019-03-28T14:46:01.163Z,23.05
2019-03-28T14:48:06.768Z,21.23
2019-03-28T14:50:10.956Z,16.85
2019-03-28T14:52:17.321Z,89.87
2019-03-28T14:54:22.281Z,187.03
2019-03-28T14:56:26.600Z,37.90
2019-03-28T14:58:32.507Z,17.73
2019-03-28T15:00:48.127Z,82.25
2019-03-28T15:02:51.860Z,115.52
2019-03-28T15:04:55.403Z,93.42
2019-03-28T15:06:59.616Z,29.85
2019-03-28T15:09:06.014Z,25.27
2019-03-28T15:11:09.553Z,34.75
2019-03-28T15:13:13.019Z,30.27
2019-03-28T15:15:17.485Z,14.50
2019-03-28T15:17:21.357Z,16.57
2019-03-28T15:19:25.037Z,32.63
2019-03-28T15:21:28.577Z,20.57
2019-03-28T15:23:32.112Z,21.60
2019-03-28T15:25:35.696Z,22.40
2019-03-28T15:27:39.569Z,21.97
2019-03-28T15:29:43.139Z,12.90
2019-03-28T15:31:46.796Z,12.07
2019-03-28T15:33:50.264Z,16.20
2019-03-28T15:35:54.164Z,30.43
2019-03-28T15:37:57.636Z,27.10
2019-03-28T15:42:04.925Z,17.17
2019-03-28T15:44:08.460Z,14.75
2019-03-28T15:46:12.258Z,15.60
2019-03-28T15:48:15.977Z,17.70
2019-03-28T15:50:19.969Z,32.88
2019-03-28T15:52:27.267Z,24.63
2019-03-28T15:54:29.645Z,17.55
2019-03-28T15:56:33.418Z,15.20
2019-03-28T15:58:37.114Z,16.37
2019-03-28T16:00:41.704Z,14.28
2019-03-28T16:02:45.509Z,18.57
2019-03-28T16:04:49.200Z,24.70
2019-03-28T16:06:52.738Z,14.30
2019-03-28T16:08:56.364Z,12.45
2019-03-28T16:10:59.909Z,11.80
2019-03-28T16:13:03.368Z,9.80
2019-03-28T16:15:08.570Z,13.90
2019-03-28T16:17:12.125Z,16.80
2019-03-28T16:19:18.718Z,54.98
2019-03-28T16:21:22.252Z,24.70
2019-03-28T16:23:26.125Z,24.90
2019-03-28T16:25:29.671Z,18.05
2019-03-28T16:27:34.112Z,14.43
2019-03-28T16:29:37.941Z,16.35
2019-03-28T16:31:41.851Z,15.35
2019-03-28T16:33:45.749Z,14.45
2019-03-28T16:35:49.656Z,17.42
2019-03-28T16:37:53.857Z,19.42
2019-03-28T16:39:57.609Z,14.30
2019-03-28T16:42:01.478Z,14.87
2019-03-28T16:44:05.275Z,12.78
2019-03-28T16:46:09.213Z,13.55
2019-03-28T16:48:13.091Z,11.33
2019-03-28T16:50:17.309Z,10.48
2019-03-28T16:52:20.849Z,10.95
2019-03-28T16:54:24.701Z,13.25
2019-03-28T16:56:28.633Z,25.65
2019-03-28T16:58:32.172Z,53.40
2019-03-28T17:00:39.398Z,86.32
2019-03-28T17:02:43.302Z,130.82
2019-03-28T17:04:47.400Z,209.27
2019-03-28T17:06:51.613Z,210.28
2019-03-28T17:08:55.930Z,234.57
2019-03-28T17:10:59.725Z,302.62
2019-03-28T17:13:03.268Z,120.55
2019-03-28T17:15:08.989Z,107.90
2019-03-28T17:17:12.529Z,119.02
2019-03-28T17:19:16.068Z,45.65
2019-03-28T17:21:23.153Z,35.45
2019-03-28T17:23:25.996Z,41.30
2019-03-28T17:25:30.413Z,33.25
2019-03-28T17:27:34.241Z,57.45
2019-03-28T17:29:37.708Z,75.32
2019-03-28T17:31:41.164Z,62.10
2019-03-28T17:33:44.884Z,27.52
2019-03-28T17:35:48.857Z,30.27
2019-03-28T17:37:52.423Z,24.10
2019-03-28T17:39:55.921Z,44.98
2019-03-28T17:41:59.473Z,36.40
2019-03-28T17:44:03.160Z,35.90
2019-03-28T17:46:07.185Z,30.80
2019-03-28T17:48:10.860Z,35.45
2019-03-28T17:50:15.145Z,42.35
2019-03-28T17:52:18.612Z,57.78
2019-03-28T17:54:22.426Z,48.78
2019-03-28T17:56:25.943Z,75.37
2019-03-28T17:58:29.549Z,88.15
2019-03-28T18:00:33.234Z,111.80
2019-03-28T18:02:38.530Z,113.68
2019-03-28T18:04:47.755Z,97.70
2019-03-28T18:06:47.963Z,127.70
2019-03-28T18:08:51.595Z,194.13
2019-03-28T18:10:55.964Z,142.75
2019-03-28T18:12:59.884Z,164.70
2019-03-28T18:15:03.851Z,253.90
2019-03-28T18:17:07.887Z,215.32
2019-03-28T18:19:11.665Z,219.28
2019-03-28T18:21:15.205Z,142.47
2019-03-28T18:23:18.873Z,108.22
2019-03-28T18:25:22.485Z,55.00
2019-03-28T18:27:26.262Z,59.00
2019-03-28T18:29:30.164Z,57.83
2019-03-28T18:31:33.985Z,76.22
2019-03-28T18:33:37.874Z,123.78
2019-03-28T18:35:41.976Z,103.10
2019-03-28T18:37:45.801Z,104.23
2019-03-28T18:39:49.353Z,73.80
2019-03-28T18:41:56.346Z,210.35
2019-03-28T18:43:58.553Z,228.98
2019-03-28T18:46:03.120Z,120.77
2019-03-28T18:48:09.064Z,127.72
2019-03-28T18:50:12.731Z,155.82
2019-03-28T18:52:16.725Z,103.97
2019-03-28T18:54:20.496Z,130.18
2019-03-28T18:56:24.404Z,193.05
2019-03-28T18:58:27.933Z,53.98
2019-03-28T19:00:31.542Z,50.10
2019-03-28T19:02:35.240Z,35.65
2019-03-28T19:04:38.698Z,45.63
2019-03-28T19:06:43.006Z,38.05
2019-03-28T19:08:47.741Z,36.33
2019-03-28T19:10:52.150Z,66.47
2019-03-28T19:12:55.956Z,108.27
2019-03-28T19:14:59.870Z,89.52
2019-03-28T19:17:03.861Z,80.57
2019-03-28T19:19:07.941Z,74.82
2019-03-28T19:21:11.473Z,49.25
2019-03-28T19:23:15.293Z,43.17
2019-03-28T19:25:19.122Z,46.48
2019-03-28T19:27:22.661Z,90.53
2019-03-28T19:29:26.220Z,68.67
2019-03-28T19:31:30.661Z,65.95
2019-03-28T19:33:34.488Z,79.72
2019-03-28T19:35:40.504Z,80.30
2019-03-28T19:37:45.617Z,70.37
2019-03-28T19:39:49.962Z,59.05
2019-03-28T19:41:53.584Z,56.30
2019-03-28T19:43:57.695Z,60.55
2019-03-28T19:46:01.232Z,72.45
2019-03-28T19:48:06.991Z,75.50
2019-03-28T19:50:15.633Z,95.95
2019-03-28T19:52:19.615Z,123.95
2019-03-28T19:54:23.500Z,139.68
2019-03-28T19:56:27.072Z,101.82
2019-03-28T19:58:31.038Z,87.62
2019-03-28T20:00:34.806Z,73.28
2019-03-28T20:02:38.701Z,68.83
2019-03-28T20:04:44.518Z,68.90
2019-03-28T20:06:48.028Z,69.00
2019-03-28T20:08:51.845Z,75.42
2019-03-28T20:10:55.573Z,68.83
2019-03-28T20:12:59.432Z,68.80
2019-03-28T20:15:03.366Z,71.95
2019-03-28T20:17:06.992Z,80.67
2019-03-28T20:19:10.553Z,94.90
2019-03-28T20:21:14.287Z,103.05
2019-03-28T20:23:17.872Z,143.57
2019-03-28T20:25:21.729Z,123.40
2019-03-28T20:27:25.261Z,162.05
2019-03-28T20:29:29.641Z,150.40
2019-03-28T20:31:33.196Z,136.70
2019-03-28T20:33:37.880Z,226.52
2019-03-28T20:35:41.969Z,441.00
2019-03-28T20:37:45.501Z,324.10
2019-03-28T20:39:48.973Z,156.40
2019-03-28T20:41:52.789Z,100.85
2019-03-28T20:43:56.678Z,126.40
2019-03-28T20:46:00.611Z,128.57
2019-03-28T20:48:04.260Z,92.47
2019-03-28T20:50:08.902Z,84.32
2019-03-28T20:52:13.325Z,69.77
2019-03-28T20:54:16.867Z,72.30
2019-03-28T20:56:20.731Z,62.20
2019-03-28T20:58:24.626Z,71.77
2019-03-28T21:00:38.862Z,65.15
2019-03-28T21:02:43.381Z,61.85
2019-03-28T21:04:47.368Z,58.50
2019-03-28T21:06:51.397Z,64.07
2019-03-28T21:08:56.317Z,57.55
2019-03-28T21:11:00.056Z,95.55
2019-03-28T21:13:05.032Z,130.45
2019-03-28T21:15:09.269Z,96.72
2019-03-28T21:17:13.411Z,98.78
2019-03-28T21:19:16.949Z,86.15
2019-03-28T21:21:20.750Z,67.75
2019-03-28T21:23:24.230Z,66.05
2019-03-28T21:25:29.613Z,85.20
2019-03-28T21:27:33.366Z,84.10
2019-03-28T21:29:48.286Z,106.00
2019-03-28T21:31:49.707Z,91.82
2019-03-28T21:33:47.415Z,70.72
2019-03-28T21:35:51.284Z,66.25
2019-03-28T21:37:55.051Z,74.90
2019-03-28T21:39:59.011Z,73.12
2019-03-28T21:42:02.900Z,74.80
2019-03-28T21:44:06.366Z,71.25
2019-03-28T21:46:09.902Z,75.25
2019-03-28T21:48:13.449Z,74.15
2019-03-28T21:50:17.156Z,77.92
2019-03-28T21:52:20.721Z,76.95
2019-03-28T21:54:25.376Z,76.62
2019-03-28T21:56:29.718Z,81.20
2019-03-28T21:58:33.629Z,80.42
2019-03-28T22:00:37.160Z,78.42
2019-03-28T22:02:41.387Z,82.33
2019-03-28T22:04:44.848Z,72.62
2019-03-28T22:06:49.010Z,70.35
2019-03-28T22:08:53.153Z,77.53
2019-03-28T22:10:57.364Z,72.08
2019-03-28T22:13:00.998Z,66.70
2019-03-28T22:15:06.653Z,64.37
2019-03-28T22:17:10.172Z,65.32
2019-03-28T22:19:13.716Z,62.00
2019-03-28T22:21:17.320Z,62.73
2019-03-28T22:23:21.166Z,67.05
2019-03-28T22:25:24.657Z,64.67
2019-03-28T22:27:28.253Z,61.40
2019-03-28T22:29:31.992Z,63.38
2019-03-28T22:31:35.460Z,60.80
2019-03-28T22:33:39.288Z,55.40
2019-03-28T22:35:42.753Z,54.48
2019-03-28T22:37:46.280Z,56.00
2019-03-28T22:39:50.670Z,55.63
2019-03-28T22:41:54.212Z,56.30
2019-03-28T22:43:58.258Z,55.23
2019-03-28T22:46:02.724Z,51.40
2019-03-28T22:48:10.985Z,49.77
2019-03-28T22:50:12.264Z,48.13
2019-03-28T22:52:15.990Z,47.35
2019-03-28T22:54:19.603Z,47.78
2019-03-28T22:56:23.623Z,49.70
2019-03-28T22:58:27.448Z,39.92
2019-03-28T23:00:41.684Z,43.35
2019-03-28T23:02:45.556Z,59.83
2019-03-28T23:04:49.017Z,58.90
2019-03-28T23:06:52.726Z,49.42
2019-03-28T23:08:56.268Z,48.30
2019-03-28T23:10:59.757Z,47.53
2019-03-28T23:13:03.361Z,46.80
2019-03-28T23:15:09.214Z,47.98
2019-03-28T23:17:12.797Z,45.67
2019-03-28T23:19:16.260Z,44.65
2019-03-28T23:21:19.906Z,40.85
2019-03-28T23:23:23.372Z,36.17
2019-03-28T23:25:26.833Z,31.65
2019-03-28T23:27:30.295Z,32.40
2019-03-28T23:29:34.144Z,32.95
2019-03-28T23:31:38.556Z,43.45
2019-03-28T23:33:42.253Z,48.73
2019-03-28T23:35:46.348Z,93.15
2019-03-28T23:37:50.175Z,47.88
2019-03-28T23:39:53.717Z,41.65
2019-03-28T23:41:57.184Z,36.00
2019-03-28T23:44:01.831Z,35.80
2019-03-28T23:46:05.731Z,33.83
2019-03-28T23:48:09.809Z,32.42
2019-03-28T23:50:14.052Z,35.75
2019-03-28T23:52:17.596Z,38.17
2019-03-28T23:54:21.142Z,38.75
2019-03-28T23:56:24.683Z,42.03
2019-03-28T23:58:28.238Z,50.25
